Nordic Philip — 5BZH2 — position and weather

sailwx.info

Track history (hours):
 
Tides and Currents Weather Stations Pressure Air Temp Water Temp Dewpoint Dewpoint Depression Visibility Wind Speed Wind Dir Waves Ship Positions

Nordic Philip

Last reported at 2017-Jan-19 13:33 UTC. Time now 2017-Jan-19 23:23 UTC.
Position N 55°37' E 015°18'.

Length 151 m; draft 6.4 m.

Type: Ship (hazmat cat A). MMSI: 212018000.

Date/timePositionNaut miles runAvg speedWind from/ knotsBaromVisibWave heightAir tempDewpointWater temp
2017-Jan-19 13:33N 55°37' E 015°18'1918.9
2017-Jan-19 12:33N 55°28' E 014°49'1818.2
2017-Jan-19 11:33N 55°15' E 014°27'1918.4
2017-Jan-19 10:33N 55°01' E 014°05'1818.6
2017-Jan-19 09:33N 54°55' E 013°34'1918.6
2017-Jan-19 08:33N 54°49' E 013°04'4017.3
2017-Jan-19 06:14N 54°25' E 012°08'1318.8
2017-Jan-19 05:33N 54°25' E 011°46'1818.6
2017-Jan-19 04:33N 54°33' E 011°17'1817.6
2017-Jan-19 03:33N 54°34' E 010°47'45 7.1
2017-Jan-18 21:11N 54°15' E 009°37'8 7.6
2017-Jan-18 20:10N 54°10' E 009°26'5 7.7
2017-Jan-18 19:31N 54°07' E 009°20'4 4.3
2017-Jan-18 18:33N 54°03' E 009°18'4 4.4
2017-Jan-18 17:33N 53°58' E 009°16'4 3.7
2017-Jan-18 16:34N 53°56' E 009°12'3 2.8
2017-Jan-18 15:33N 53°54' E 009°09'2 1.8
2017-Jan-18 14:33N 53°53' E 009°06'1312.8
2017-Jan-18 13:34N 53°52' E 008°44'1817.5
2017-Jan-18 12:33N 53°60' E 008°18'1514.9
2017-Jan-18 11:33N 53°53' E 007°55'1313.5
2017-Jan-18 10:33N 53°45' E 008°13'1514.5
2017-Jan-18 09:32N 53°35' E 008°32'0 0.0
2017-Jan-18 08:32N 53°35' E 008°32'0 0.0
2017-Jan-18 07:32N 53°35' E 008°32'0 0.0
2017-Jan-18 06:32N 53°35' E 008°32'0 0.0
2017-Jan-18 05:32N 53°35' E 008°32'0 0.0
2017-Jan-18 04:32N 53°35' E 008°32'0 0.0
2017-Jan-18 03:32N 53°35' E 008°32'1 0.9
2017-Jan-18 02:33N 53°36' E 008°31'1312.9
2017-Jan-18 01:33N 53°44' E 008°14'1413.7
2017-Jan-18 00:31N 53°52' E 007°54'1312.9
2017-Jan-17 23:32N 54°00' E 008°09'1515.1
2017-Jan-17 22:32N 53°58' E 008°34'1615.9
2017-Jan-17 21:33N 53°51' E 008°58'1413.6
2017-Jan-17 20:33N 53°50' E 009°21'1616.3
2017-Jan-17 19:34N 53°36' E 009°35'1211.9
2017-Jan-17 18:33N 53°33' E 009°55'2 1.9
2017-Jan-17 17:32N 53°32' E 009°57'0 0.0
2017-Jan-17 16:32N 53°32' E 009°57'0 0.0
2017-Jan-17 15:32N 53°32' E 009°57'0 0.0
2017-Jan-17 14:32N 53°32' E 009°57'0 0.0
2017-Jan-17 13:32N 53°32' E 009°57'0 0.0
2017-Jan-17 12:32N 53°32' E 009°57'0 0.0
2017-Jan-17 11:32N 53°32' E 009°57'0 0.0
2017-Jan-17 10:32N 53°32' E 009°57'0 0.0
2017-Jan-17 09:32N 53°32' E 009°57'0 0.0
2017-Jan-17 08:32N 53°32' E 009°57'0 0.0
2017-Jan-17 07:32N 53°32' E 009°57'0 0.0
2017-Jan-17 06:32N 53°32' E 009°57'0 0.0
2017-Jan-17 05:32N 53°32' E 009°57'0 0.0
2017-Jan-17 04:32N 53°32' E 009°57'0 0.0
2017-Jan-17 03:32N 53°32' E 009°57'0 0.0
2017-Jan-17 02:32N 53°32' E 009°57'0 0.0
2017-Jan-17 01:32N 53°32' E 009°57'0 0.0
2017-Jan-17 00:32N 53°32' E 009°57'0 0.0
2017-Jan-16 23:32N 53°32' E 009°57'0 0.0
2017-Jan-16 22:32N 53°32' E 009°57'0 0.0
2017-Jan-16 21:32N 53°32' E 009°57'0 0.0
2017-Jan-16 20:32N 53°32' E 009°57'0 0.0
2017-Jan-16 19:32N 53°32' E 009°57'0 0.0
2017-Jan-16 18:32N 53°32' E 009°57'0 0.0
2017-Jan-16 17:32N 53°32' E 009°57'0 0.0
2017-Jan-16 16:29N 53°32' E 009°57'0 0.0
2017-Jan-16 15:32N 53°32' E 009°57'0 0.0
2017-Jan-16 14:32N 53°32' E 009°57'0 0.0
2017-Jan-16 13:32N 53°32' E 009°57'0 0.0
2017-Jan-16 12:32N 53°32' E 009°57'0 0.0
2017-Jan-16 11:32N 53°32' E 009°57'0 0.0
2017-Jan-16 10:32N 53°32' E 009°57'0 0.0
2017-Jan-16 09:32N 53°32' E 009°57'0 0.0
2017-Jan-16 08:32N 53°32' E 009°57'0 0.0
2017-Jan-16 07:32N 53°32' E 009°57'0 0.0
2017-Jan-16 06:32N 53°32' E 009°57'0 0.0
2017-Jan-16 05:32N 53°32' E 009°57'0 0.0
2017-Jan-16 04:32N 53°32' E 009°57'0 0.0
2017-Jan-16 03:32N 53°32' E 009°57'0 0.0
2017-Jan-16 02:32N 53°32' E 009°57'0 0.0
2017-Jan-16 01:32N 53°32' E 009°57'0 0.0
2017-Jan-16 00:32N 53°32' E 009°57'0 0.0
2017-Jan-15 23:32N 53°32' E 009°57'0 0.0
2017-Jan-15 22:32N 53°32' E 009°57'0 0.0
2017-Jan-15 21:32N 53°32' E 009°57'0 0.0
2017-Jan-15 20:32N 53°32' E 009°57'0 0.0
2017-Jan-15 19:32N 53°32' E 009°57'0 0.0
2017-Jan-15 18:32N 53°32' E 009°57'0 0.0
2017-Jan-15 17:32N 53°32' E 009°57'0 0.0
2017-Jan-15 16:32N 53°32' E 009°57'0 0.0
2017-Jan-15 15:32N 53°32' E 009°57'0 0.0
2017-Jan-15 14:32N 53°32' E 009°57'0 0.0
2017-Jan-15 13:32N 53°32' E 009°57'0 0.0
2017-Jan-15 12:32N 53°32' E 009°57'0 0.0
2017-Jan-15 11:33N 53°32' E 009°57'0 0.1
2017-Jan-15 10:33N 53°32' E 009°57'2 1.7
2017-Jan-15 09:33N 53°32' E 009°54'0 0.0
2017-Jan-15 08:33N 53°32' E 009°54'0 0.0
2017-Jan-15 07:33N 53°32' E 009°54'0 0.0
2017-Jan-15 06:33N 53°32' E 009°54'0 0.0
2017-Jan-15 05:33N 53°32' E 009°54'0 0.5
2017-Jan-15 04:33N 53°32' E 009°54'0 0.1
2017-Jan-15 03:31N 53°32' E 009°54'0 0.0
2017-Jan-15 02:31N 53°32' E 009°54'0 0.0
2017-Jan-15 01:31N 53°32' E 009°54'0 0.0
2017-Jan-15 00:31N 53°32' E 009°54'0 0.0
2017-Jan-14 23:31N 53°32' E 009°54'0 0.0
2017-Jan-14 22:31N 53°32' E 009°54'0 0.0
2017-Jan-14 21:33N 53°32' E 009°54'2 2.1
2017-Jan-14 20:31N 53°31' E 009°56'0 0.0
2017-Jan-14 19:31N 53°31' E 009°56'0 0.0
2017-Jan-14 18:31N 53°31' E 009°56'0 0.0
2017-Jan-14 17:31N 53°31' E 009°56'0 0.0
2017-Jan-14 16:31N 53°31' E 009°56'0 0.0
2017-Jan-14 15:28N 53°31' E 009°56'0 0.0
2017-Jan-14 14:33N 53°31' E 009°56'1 1.3
2017-Jan-14 13:33N 53°32' E 009°56'1111.5
2017-Jan-14 12:34N 53°35' E 009°38'1312.9
2017-Jan-14 11:33N 53°45' E 009°24'1212.1
2017-Jan-14 10:33N 53°53' E 009°09'1 0.9
2017-Jan-14 09:33N 53°54' E 009°09'4 4.4
2017-Jan-14 08:33N 53°57' E 009°14'8 7.9
2017-Jan-14 07:33N 54°04' E 009°19'8 7.2
2017-Jan-14 06:29N 54°10' E 009°27'43 5.9
2017-Jan-13 23:15N 54°33' E 010°29'710.0
2017-Jan-13 22:33N 54°35' E 010°40'10 9.9
2017-Jan-13 21:33N 54°36' E 010°57'10 9.6
2017-Jan-13 20:33N 54°35' E 011°14'1010.0
2017-Jan-13 19:33N 54°31' E 011°29'9 9.4
2017-Jan-13 18:33N 54°27' E 011°44'10 9.1
2017-Jan-13 17:24N 54°26' E 012°02'7 7.9
2017-Jan-13 16:33N 54°30' E 012°12'9 8.8
2017-Jan-13 15:33N 54°38' E 012°18'30 9.2
2017-Jan-13 12:15N 54°52' E 013°05'1911.1
2017-Jan-13 10:32N 54°59' E 013°36'1717.9
2017-Jan-13 09:34N 55°05' E 014°04'1817.7
2017-Jan-13 08:33N 55°19' E 014°23'1717.3
2017-Jan-13 07:33N 55°30' E 014°46'1817.5
2017-Jan-13 06:33N 55°40' E 015°13'26715.7
2017-Jan-12 13:33N 59°22' E 019°46'1413.5
2017-Jan-12 12:33N 59°34' E 019°58'1515.2
2017-Jan-12 11:33N 59°47' E 019°41'1717.0
2017-Jan-12 10:34N 59°60' E 019°20'  
Track history (hours):
 
Tides and Currents Weather Stations Pressure Air Temp Water Temp Dewpoint Dewpoint Depression Visibility Wind Speed Wind Dir Waves Ship Positions

Nordic Philip

Last reported at 2017-Jan-19 13:33 UTC. Time now 2017-Jan-19 23:23 UTC.
Position N 55°37' E 015°18'.

Length 151 m; draft 6.4 m.

Type: Ship (hazmat cat A). MMSI: 212018000.

Date/timePositionNaut miles runAvg speedWind from/ knotsBaromVisibWave heightAir tempDewpointWater temp
2017-Jan-19 13:33N 55°37' E 015°18'1918.9
2017-Jan-19 12:33N 55°28' E 014°49'1818.2
2017-Jan-19 11:33N 55°15' E 014°27'1918.4
2017-Jan-19 10:33N 55°01' E 014°05'1818.6
2017-Jan-19 09:33N 54°55' E 013°34'1918.6
2017-Jan-19 08:33N 54°49' E 013°04'4017.3
2017-Jan-19 06:14N 54°25' E 012°08'1318.8
2017-Jan-19 05:33N 54°25' E 011°46'1818.6
2017-Jan-19 04:33N 54°33' E 011°17'1817.6
2017-Jan-19 03:33N 54°34' E 010°47'45 7.1
2017-Jan-18 21:11N 54°15' E 009°37'8 7.6
2017-Jan-18 20:10N 54°10' E 009°26'5 7.7
2017-Jan-18 19:31N 54°07' E 009°20'4 4.3
2017-Jan-18 18:33N 54°03' E 009°18'4 4.4
2017-Jan-18 17:33N 53°58' E 009°16'4 3.7
2017-Jan-18 16:34N 53°56' E 009°12'3 2.8
2017-Jan-18 15:33N 53°54' E 009°09'2 1.8
2017-Jan-18 14:33N 53°53' E 009°06'1312.8
2017-Jan-18 13:34N 53°52' E 008°44'1817.5
2017-Jan-18 12:33N 53°60' E 008°18'1514.9
2017-Jan-18 11:33N 53°53' E 007°55'1313.5
2017-Jan-18 10:33N 53°45' E 008°13'1514.5
2017-Jan-18 09:32N 53°35' E 008°32'0 0.0
2017-Jan-18 08:32N 53°35' E 008°32'0 0.0
2017-Jan-18 07:32N 53°35' E 008°32'0 0.0
2017-Jan-18 06:32N 53°35' E 008°32'0 0.0
2017-Jan-18 05:32N 53°35' E 008°32'0 0.0
2017-Jan-18 04:32N 53°35' E 008°32'0 0.0
2017-Jan-18 03:32N 53°35' E 008°32'1 0.9
2017-Jan-18 02:33N 53°36' E 008°31'1312.9
2017-Jan-18 01:33N 53°44' E 008°14'1413.7
2017-Jan-18 00:31N 53°52' E 007°54'1312.9
2017-Jan-17 23:32N 54°00' E 008°09'1515.1
2017-Jan-17 22:32N 53°58' E 008°34'1615.9
2017-Jan-17 21:33N 53°51' E 008°58'1413.6
2017-Jan-17 20:33N 53°50' E 009°21'1616.3
2017-Jan-17 19:34N 53°36' E 009°35'1211.9
2017-Jan-17 18:33N 53°33' E 009°55'2 1.9
2017-Jan-17 17:32N 53°32' E 009°57'0 0.0
2017-Jan-17 16:32N 53°32' E 009°57'0 0.0
2017-Jan-17 15:32N 53°32' E 009°57'0 0.0
2017-Jan-17 14:32N 53°32' E 009°57'0 0.0
2017-Jan-17 13:32N 53°32' E 009°57'0 0.0
2017-Jan-17 12:32N 53°32' E 009°57'0 0.0
2017-Jan-17 11:32N 53°32' E 009°57'0 0.0
2017-Jan-17 10:32N 53°32' E 009°57'0 0.0
2017-Jan-17 09:32N 53°32' E 009°57'0 0.0
2017-Jan-17 08:32N 53°32' E 009°57'0 0.0
2017-Jan-17 07:32N 53°32' E 009°57'0 0.0
2017-Jan-17 06:32N 53°32' E 009°57'0 0.0
2017-Jan-17 05:32N 53°32' E 009°57'0 0.0
2017-Jan-17 04:32N 53°32' E 009°57'0 0.0
2017-Jan-17 03:32N 53°32' E 009°57'0 0.0
2017-Jan-17 02:32N 53°32' E 009°57'0 0.0
2017-Jan-17 01:32N 53°32' E 009°57'0 0.0
2017-Jan-17 00:32N 53°32' E 009°57'0 0.0
2017-Jan-16 23:32N 53°32' E 009°57'0 0.0
2017-Jan-16 22:32N 53°32' E 009°57'0 0.0
2017-Jan-16 21:32N 53°32' E 009°57'0 0.0
2017-Jan-16 20:32N 53°32' E 009°57'0 0.0
2017-Jan-16 19:32N 53°32' E 009°57'0 0.0
2017-Jan-16 18:32N 53°32' E 009°57'0 0.0
2017-Jan-16 17:32N 53°32' E 009°57'0 0.0
2017-Jan-16 16:29N 53°32' E 009°57'0 0.0
2017-Jan-16 15:32N 53°32' E 009°57'0 0.0
2017-Jan-16 14:32N 53°32' E 009°57'0 0.0
2017-Jan-16 13:32N 53°32' E 009°57'0 0.0
2017-Jan-16 12:32N 53°32' E 009°57'0 0.0
2017-Jan-16 11:32N 53°32' E 009°57'0 0.0
2017-Jan-16 10:32N 53°32' E 009°57'0 0.0
2017-Jan-16 09:32N 53°32' E 009°57'0 0.0
2017-Jan-16 08:32N 53°32' E 009°57'0 0.0
2017-Jan-16 07:32N 53°32' E 009°57'0 0.0
2017-Jan-16 06:32N 53°32' E 009°57'0 0.0
2017-Jan-16 05:32N 53°32' E 009°57'0 0.0
2017-Jan-16 04:32N 53°32' E 009°57'0 0.0
2017-Jan-16 03:32N 53°32' E 009°57'0 0.0
2017-Jan-16 02:32N 53°32' E 009°57'0 0.0
2017-Jan-16 01:32N 53°32' E 009°57'0 0.0
2017-Jan-16 00:32N 53°32' E 009°57'0 0.0
2017-Jan-15 23:32N 53°32' E 009°57'0 0.0
2017-Jan-15 22:32N 53°32' E 009°57'0 0.0
2017-Jan-15 21:32N 53°32' E 009°57'0 0.0
2017-Jan-15 20:32N 53°32' E 009°57'0 0.0
2017-Jan-15 19:32N 53°32' E 009°57'0 0.0
2017-Jan-15 18:32N 53°32' E 009°57'0 0.0
2017-Jan-15 17:32N 53°32' E 009°57'0 0.0
2017-Jan-15 16:32N 53°32' E 009°57'0 0.0
2017-Jan-15 15:32N 53°32' E 009°57'0 0.0
2017-Jan-15 14:32N 53°32' E 009°57'0 0.0
2017-Jan-15 13:32N 53°32' E 009°57'0 0.0
2017-Jan-15 12:32N 53°32' E 009°57'0 0.0
2017-Jan-15 11:33N 53°32' E 009°57'0 0.1
2017-Jan-15 10:33N 53°32' E 009°57'2 1.7
2017-Jan-15 09:33N 53°32' E 009°54'0 0.0
2017-Jan-15 08:33N 53°32' E 009°54'0 0.0
2017-Jan-15 07:33N 53°32' E 009°54'0 0.0
2017-Jan-15 06:33N 53°32' E 009°54'0 0.0
2017-Jan-15 05:33N 53°32' E 009°54'0 0.5
2017-Jan-15 04:33N 53°32' E 009°54'0 0.1
2017-Jan-15 03:31N 53°32' E 009°54'0 0.0
2017-Jan-15 02:31N 53°32' E 009°54'0 0.0
2017-Jan-15 01:31N 53°32' E 009°54'0 0.0
2017-Jan-15 00:31N 53°32' E 009°54'0 0.0
2017-Jan-14 23:31N 53°32' E 009°54'0 0.0
2017-Jan-14 22:31N 53°32' E 009°54'0 0.0
2017-Jan-14 21:33N 53°32' E 009°54'2 2.1
2017-Jan-14 20:31N 53°31' E 009°56'0 0.0
2017-Jan-14 19:31N 53°31' E 009°56'0 0.0
2017-Jan-14 18:31N 53°31' E 009°56'0 0.0
2017-Jan-14 17:31N 53°31' E 009°56'0 0.0
2017-Jan-14 16:31N 53°31' E 009°56'0 0.0
2017-Jan-14 15:28N 53°31' E 009°56'0 0.0
2017-Jan-14 14:33N 53°31' E 009°56'1 1.3
2017-Jan-14 13:33N 53°32' E 009°56'1111.5
2017-Jan-14 12:34N 53°35' E 009°38'1312.9
2017-Jan-14 11:33N 53°45' E 009°24'1212.1
2017-Jan-14 10:33N 53°53' E 009°09'1 0.9
2017-Jan-14 09:33N 53°54' E 009°09'4 4.4
2017-Jan-14 08:33N 53°57' E 009°14'8 7.9
2017-Jan-14 07:33N 54°04' E 009°19'8 7.2
2017-Jan-14 06:29N 54°10' E 009°27'43 5.9
2017-Jan-13 23:15N 54°33' E 010°29'710.0
2017-Jan-13 22:33N 54°35' E 010°40'10 9.9
2017-Jan-13 21:33N 54°36' E 010°57'10 9.6
2017-Jan-13 20:33N 54°35' E 011°14'1010.0
2017-Jan-13 19:33N 54°31' E 011°29'9 9.4
2017-Jan-13 18:33N 54°27' E 011°44'10 9.1
2017-Jan-13 17:24N 54°26' E 012°02'7 7.9
2017-Jan-13 16:33N 54°30' E 012°12'9 8.8
2017-Jan-13 15:33N 54°38' E 012°18'30 9.2
2017-Jan-13 12:15N 54°52' E 013°05'1911.1
2017-Jan-13 10:32N 54°59' E 013°36'1717.9
2017-Jan-13 09:34N 55°05' E 014°04'1817.7
2017-Jan-13 08:33N 55°19' E 014°23'1717.3
2017-Jan-13 07:33N 55°30' E 014°46'1817.5
2017-Jan-13 06:33N 55°40' E 015°13'26715.7
2017-Jan-12 13:33N 59°22' E 019°46'1413.5
2017-Jan-12 12:33N 59°34' E 019°58'1515.2
2017-Jan-12 11:33N 59°47' E 019°41'1717.0
2017-Jan-12 10:34N 59°60' E 019°20'  

Dump ship's entire track history